KEEN/EEN METAR and TAF weather

Enter ICAO airport designator
Station Type Date Time Source
KEEN METAR 2018/12/12 15:56 UTC NOAA

KEEN 121556Z AUTO 34010KT 10SM BKN032 OVC042 01/M08 A3005 RMK AO2 SLP197 T00061078 FZRANO $


Station Type Date Time Source
KEEN Decoded METAR 2018/12/12 15:56 UTC NOAA

Keene, Dillant-Hopkins Airport, NH, United States (KEEN) 42-54N 072-16W
Dec 12, 2018 - 10:56 AM EST / 2018.12.12 1556 UTC
Wind: from the NNW (340 degrees) at 12 MPH (10 KT):0
Visibility: 10 mile(s):0
Sky conditions: overcast
Temperature: 33.1 F (0.6 C)
Windchill: 24 F (-4 C):1
Dew Point: 18.0 F (-7.8 C)
Relative Humidity: 53%
Pressure (altimeter): 30.05 in. Hg (1017 hPa)
ob: KEEN 121556Z AUTO 34010KT 10SM BKN032 OVC042 01/M08 A3005 RMK AO2 SLP197 T00061078 FZRANO
cycle: 16

Station Type Date Time Source
KEEN TAF UTC NOAA

Error!


Example: see airport list